createdAt,value
2023-01-11T00:01:21.795Z,7.88
2023-01-11T00:03:49.039Z,6.63
2023-01-11T00:06:16.041Z,7.07
2023-01-11T00:08:44.508Z,7.87
2023-01-11T00:11:15.013Z,6.57
2023-01-11T00:13:42.249Z,5.55
2023-01-11T00:16:09.818Z,6.47
2023-01-11T00:18:37.987Z,5.90
2023-01-11T00:21:06.156Z,8.37
2023-01-11T00:23:33.953Z,7.70
2023-01-11T00:26:04.334Z,6.78
2023-01-11T00:28:31.933Z,6.75
2023-01-11T00:30:58.976Z,9.27
2023-01-11T00:33:26.064Z,6.93
2023-01-11T00:35:53.513Z,7.55
2023-01-11T00:38:39.851Z,6.30
2023-01-11T00:41:35.824Z,6.20
2023-01-11T00:44:22.437Z,6.70
2023-01-11T00:47:08.379Z,6.93
2023-01-11T00:49:35.931Z,6.47
2023-01-11T00:52:05.670Z,6.00
2023-01-11T00:54:32.727Z,6.40
2023-01-11T00:57:01.166Z,7.50
2023-01-11T00:59:28.162Z,7.07
2023-01-11T01:01:55.269Z,5.47
2023-01-11T01:04:22.525Z,5.82
2023-01-11T01:06:49.589Z,6.88
2023-01-11T01:09:16.786Z,6.82
2023-01-11T01:11:43.895Z,7.43
2023-01-11T01:14:29.601Z,6.28
2023-01-11T01:16:58.616Z,6.35
2023-01-11T01:19:27.840Z,8.05
2023-01-11T01:21:55.994Z,5.05
2023-01-11T01:24:23.744Z,7.07
2023-01-11T01:26:51.140Z,6.57
2023-01-11T01:29:20.123Z,5.50
2023-01-11T01:31:47.739Z,6.18
2023-01-11T01:34:14.938Z,7.30
2023-01-11T01:36:42.033Z,7.03
2023-01-11T01:39:11.295Z,5.43
2023-01-11T01:41:38.402Z,7.38
2023-01-11T01:44:21.479Z,8.27
2023-01-11T01:46:50.331Z,5.82
2023-01-11T01:49:17.872Z,7.63
2023-01-11T01:51:48.917Z,7.05
2023-01-11T01:54:20.414Z,7.28
2023-01-11T01:56:52.212Z,5.43
2023-01-11T01:59:21.838Z,6.10
2023-01-11T02:01:52.265Z,5.63
2023-01-11T02:04:24.521Z,6.53
2023-01-11T02:06:56.530Z,5.80
2023-01-11T02:09:29.661Z,6.22
2023-01-11T02:11:58.620Z,6.57
2023-01-11T02:14:28.015Z,6.20
2023-01-11T02:16:56.812Z,4.25
2023-01-11T02:19:40.486Z,5.50
2023-01-11T02:22:41.909Z,6.38
2023-01-11T02:25:45.084Z,6.60
2023-01-11T02:28:18.053Z,5.00
2023-01-11T02:30:53.724Z,7.40
2023-01-11T02:33:30.561Z,5.45
2023-01-11T02:36:08.600Z,4.70
2023-01-11T02:38:45.172Z,5.43
2023-01-11T02:41:26.534Z,4.57
2023-01-11T02:44:20.931Z,6.05
2023-01-11T02:46:53.492Z,5.28
2023-01-11T02:49:26.064Z,6.38
2023-01-11T02:51:55.836Z,5.82
2023-01-11T02:54:24.490Z,5.23
2023-01-11T02:56:55.191Z,6.00
2023-01-11T02:59:28.160Z,5.00
2023-01-11T03:04:40.248Z,6.47
2023-01-11T03:07:23.023Z,4.03
2023-01-11T03:09:59.213Z,4.90
2023-01-11T03:12:55.053Z,7.43
2023-01-11T03:15:45.120Z,5.45
2023-01-11T03:18:28.362Z,4.90
2023-01-11T03:21:03.736Z,5.90
2023-01-11T03:23:39.232Z,5.40
2023-01-11T03:26:16.270Z,5.55
2023-01-11T03:28:52.571Z,5.85
2023-01-11T03:31:27.681Z,4.75
2023-01-11T03:34:00.630Z,5.40
2023-01-11T03:36:33.656Z,6.05
2023-01-11T03:39:08.261Z,4.57
2023-01-11T03:41:39.031Z,4.40
2023-01-11T03:44:08.018Z,6.75
2023-01-11T03:46:41.012Z,5.03
2023-01-11T03:49:13.286Z,5.38
2023-01-11T03:51:43.491Z,4.50
2023-01-11T03:54:14.229Z,5.53
2023-01-11T03:56:46.289Z,6.00
2023-01-11T03:59:14.172Z,6.50
2023-01-11T04:01:43.947Z,6.32
2023-01-11T04:04:11.039Z,6.55
2023-01-11T04:06:39.402Z,7.47
2023-01-11T04:09:06.843Z,5.82
2023-01-11T04:11:34.015Z,5.87
2023-01-11T04:14:01.529Z,4.30
2023-01-11T04:16:28.660Z,4.85
2023-01-11T04:18:57.103Z,5.22
2023-01-11T04:21:24.214Z,4.82
2023-01-11T04:23:51.376Z,5.77
2023-01-11T04:26:18.546Z,4.65
2023-01-11T04:28:46.672Z,5.28
2023-01-11T04:31:13.813Z,5.32
2023-01-11T04:33:40.981Z,4.88
2023-01-11T04:36:11.381Z,4.90
2023-01-11T04:38:39.891Z,3.95
2023-01-11T04:41:25.587Z,5.13
2023-01-11T04:43:54.537Z,6.25
2023-01-11T04:46:21.628Z,4.95
2023-01-11T04:48:48.893Z,4.33
2023-01-11T04:51:17.390Z,4.97
2023-01-11T04:53:47.204Z,5.65
2023-01-11T04:56:14.514Z,4.10
2023-01-11T04:58:45.995Z,4.72
2023-01-11T05:01:16.413Z,6.07
2023-01-11T05:03:43.682Z,6.70
2023-01-11T05:06:11.256Z,5.40
2023-01-11T05:08:40.389Z,4.63
2023-01-11T05:11:08.492Z,6.00
2023-01-11T05:13:44.365Z,6.67
2023-01-11T05:16:13.200Z,4.68
2023-01-11T05:18:41.466Z,6.90
2023-01-11T05:21:09.691Z,8.23
2023-01-11T05:23:37.277Z,4.40
2023-01-11T05:26:08.160Z,5.07
2023-01-11T05:28:38.313Z,5.82
2023-01-11T05:31:05.757Z,6.00
2023-01-11T05:33:32.891Z,8.75
2023-01-11T05:36:01.264Z,7.78
2023-01-11T05:38:29.199Z,6.43
2023-01-11T05:40:57.600Z,4.85
2023-01-11T05:43:27.190Z,3.85
2023-01-11T05:45:55.035Z,6.80
2023-01-11T05:48:22.249Z,5.82
2023-01-11T05:50:53.268Z,7.13
2023-01-11T05:53:21.608Z,5.38
2023-01-11T05:55:55.275Z,5.88
2023-01-11T05:58:23.432Z,6.82
2023-01-11T06:00:53.743Z,6.10
2023-01-11T06:03:21.624Z,6.80
2023-01-11T06:05:48.825Z,7.38
2023-01-11T06:08:16.194Z,7.88
2023-01-11T06:10:43.916Z,7.07
2023-01-11T06:13:29.425Z,8.50
2023-01-11T06:16:01.396Z,8.33
2023-01-11T06:18:30.242Z,9.15
2023-01-11T06:20:58.131Z,9.82
2023-01-11T06:23:27.024Z,9.43
2023-01-11T06:25:54.429Z,9.23
2023-01-11T06:28:22.025Z,9.43
2023-01-11T06:30:52.806Z,11.30
2023-01-11T06:33:22.959Z,9.95
2023-01-11T06:35:50.791Z,12.32
2023-01-11T06:38:19.943Z,15.77
2023-01-11T06:40:52.743Z,14.70
2023-01-11T06:43:21.019Z,17.25
2023-01-11T06:45:48.417Z,13.38
2023-01-11T06:48:16.002Z,15.73
2023-01-11T06:50:47.728Z,13.65
2023-01-11T06:53:15.378Z,12.97
2023-01-11T06:55:42.542Z,11.25
2023-01-11T06:58:09.737Z,11.43
2023-01-11T07:00:37.048Z,10.75
2023-01-11T07:03:04.966Z,12.35
2023-01-11T07:05:33.528Z,10.73
2023-01-11T07:08:02.718Z,11.20
2023-01-11T07:10:30.177Z,10.25
2023-01-11T07:12:57.817Z,7.72
2023-01-11T07:15:24.975Z,8.02
2023-01-11T07:17:54.528Z,9.10
2023-01-11T07:20:22.706Z,7.45
2023-01-11T07:22:50.038Z,10.75
2023-01-11T07:25:18.855Z,10.23
2023-01-11T07:27:46.059Z,7.25
2023-01-11T07:30:13.988Z,7.20
2023-01-11T07:32:41.203Z,7.88
2023-01-11T07:35:09.151Z,9.50
2023-01-11T07:37:37.707Z,6.45
2023-01-11T07:40:06.091Z,7.05
2023-01-11T07:42:53.105Z,8.07
2023-01-11T07:45:20.466Z,7.65
2023-01-11T07:47:50.078Z,8.70
2023-01-11T07:50:17.679Z,11.63
2023-01-11T07:52:47.409Z,13.93
2023-01-11T07:55:15.755Z,14.93
2023-01-11T07:57:44.250Z,17.50
2023-01-11T08:00:12.684Z,15.68
2023-01-11T08:02:39.890Z,15.55
2023-01-11T08:05:07.933Z,15.23
2023-01-11T08:07:35.129Z,14.93
2023-01-11T08:10:03.432Z,16.75
2023-01-11T08:12:51.495Z,16.23
2023-01-11T08:15:21.803Z,15.32
2023-01-11T08:17:50.584Z,15.82
2023-01-11T08:20:17.906Z,15.43
2023-01-11T13:36:23.166Z,9.60
2023-01-11T13:42:37.206Z,14.40
2023-01-11T13:45:15.606Z,130.10
2023-01-11T13:47:47.176Z,28.23
2023-01-11T13:50:20.813Z,7.97
2023-01-11T13:52:58.525Z,24.25
2023-01-11T13:55:30.680Z,6.55
2023-01-11T13:58:03.933Z,6.60
2023-01-11T14:00:38.256Z,6.67
2023-01-11T14:03:15.979Z,6.15
2023-01-11T14:05:53.030Z,7.80
2023-01-11T14:08:46.087Z,8.02
2023-01-11T14:11:21.303Z,8.13
2023-01-11T14:14:18.036Z,7.60
2023-01-11T14:16:59.936Z,7.20
2023-01-11T14:19:34.311Z,9.00
2023-01-11T14:22:13.099Z,7.97
2023-01-11T14:24:46.797Z,13.63
2023-01-11T14:27:47.792Z,7.30
2023-01-11T14:30:34.851Z,11.73
2023-01-11T14:33:22.971Z,9.68
2023-01-11T14:36:07.990Z,8.15
2023-01-11T14:39:06.403Z,8.13
2023-01-11T14:42:02.205Z,7.27
2023-01-11T14:45:02.312Z,9.30
2023-01-11T14:48:04.228Z,7.03
2023-01-11T14:50:42.088Z,8.00
2023-01-11T14:53:18.027Z,8.48
2023-01-11T14:55:46.490Z,31.43
2023-01-11T14:58:21.487Z,9.20
2023-01-11T15:02:06.213Z,11.48
2023-01-11T15:08:45.312Z,12.05
2023-01-11T15:11:38.717Z,13.77
2023-01-11T15:14:25.262Z,12.77
2023-01-11T15:17:24.167Z,15.18
2023-01-11T15:19:53.348Z,15.77
2023-01-11T15:22:30.812Z,15.90
2023-01-11T15:25:02.161Z,17.50
2023-01-11T15:27:34.275Z,22.17
2023-01-11T15:30:01.983Z,38.28
2023-01-11T15:32:31.637Z,62.70
2023-01-11T15:35:31.944Z,50.25
2023-01-11T15:38:09.086Z,135.20
2023-01-11T15:40:41.074Z,43.95
2023-01-11T15:43:48.098Z,14.30
2023-01-11T15:46:45.961Z,23.13
2023-01-11T15:49:52.102Z,78.45
2023-01-11T15:52:51.622Z,83.37
2023-01-11T15:55:49.480Z,71.72
2023-01-11T15:58:51.889Z,84.20
2023-01-11T16:01:24.081Z,125.93
2023-01-11T16:04:01.799Z,156.70
2023-01-11T16:06:40.757Z,172.10
2023-01-11T16:09:24.417Z,142.63
2023-01-11T16:12:07.465Z,98.93
2023-01-11T16:14:50.800Z,64.53
2023-01-11T16:17:21.636Z,56.95
2023-01-11T16:19:55.396Z,52.90
2023-01-11T16:22:25.985Z,55.13
2023-01-11T16:24:56.951Z,57.53
2023-01-11T16:27:28.003Z,60.42
2023-01-11T16:29:56.490Z,64.55
2023-01-11T16:32:27.220Z,60.50
2023-01-11T16:34:55.806Z,51.75
2023-01-11T16:37:31.052Z,50.88
2023-01-11T16:40:06.801Z,51.53
2023-01-11T16:42:41.172Z,54.20
2023-01-11T16:45:13.821Z,56.10
2023-01-11T16:47:41.212Z,57.67
2023-01-11T16:50:20.842Z,57.80
2023-01-11T16:52:52.109Z,58.70
2023-01-11T16:55:23.967Z,64.95
2023-01-11T16:57:58.767Z,71.37
2023-01-11T17:00:32.655Z,67.75
2023-01-11T17:03:02.367Z,67.35
2023-01-11T17:05:29.617Z,71.40
2023-01-11T17:07:56.978Z,79.35
2023-01-11T17:10:28.044Z,70.57
2023-01-11T17:13:43.616Z,73.03
2023-01-11T17:16:15.027Z,71.70
2023-01-11T17:18:43.377Z,101.45
2023-01-11T17:21:18.455Z,89.55
2023-01-11T17:23:47.407Z,67.70
2023-01-11T17:26:18.556Z,62.10
2023-01-11T17:28:50.583Z,89.72
2023-01-11T17:31:22.558Z,166.82
2023-01-11T17:33:59.653Z,49.15
2023-01-11T17:36:27.455Z,39.20
2023-01-11T17:38:55.820Z,46.80
2023-01-11T17:41:41.773Z,48.85
2023-01-11T17:44:35.294Z,48.92
2023-01-11T17:47:05.109Z,43.45
2023-01-11T17:49:34.309Z,48.03
2023-01-11T17:52:10.334Z,47.63
2023-01-11T17:54:37.618Z,58.22
2023-01-11T17:57:05.703Z,52.90
2023-01-11T17:59:35.631Z,70.05
2023-01-11T18:02:08.733Z,87.70
2023-01-11T18:04:36.101Z,84.43
2023-01-11T18:07:09.072Z,98.75
2023-01-11T18:09:42.688Z,81.07
2023-01-11T18:12:17.493Z,61.65
2023-01-11T18:14:52.097Z,56.37
2023-01-11T18:17:32.585Z,63.08
2023-01-11T18:20:00.847Z,58.28
2023-01-11T18:22:30.017Z,48.65
2023-01-11T18:24:58.282Z,50.97
2023-01-11T18:27:31.685Z,48.40
2023-01-11T18:30:02.989Z,47.60
2023-01-11T18:32:35.828Z,45.10
2023-01-11T18:35:03.762Z,47.25
2023-01-11T18:37:31.169Z,57.72
2023-01-11T18:39:59.386Z,52.17
2023-01-11T18:42:30.129Z,62.85
2023-01-11T18:44:57.555Z,61.92
2023-01-11T18:47:29.686Z,61.58
2023-01-11T18:49:57.640Z,56.83
2023-01-11T18:52:27.753Z,61.57
2023-01-11T18:54:56.304Z,58.50
2023-01-11T18:57:24.453Z,54.53
2023-01-11T18:59:52.694Z,53.28
2023-01-11T19:02:25.602Z,59.05
2023-01-11T19:04:56.222Z,56.17
2023-01-11T19:07:24.972Z,52.25
2023-01-11T19:09:55.067Z,49.20
2023-01-11T19:12:23.412Z,52.60
2023-01-11T19:14:51.098Z,62.60
2023-01-11T19:17:18.487Z,62.07
2023-01-11T19:19:47.741Z,62.05
2023-01-11T19:22:16.535Z,60.10
2023-01-11T19:24:44.173Z,52.58
2023-01-11T19:27:13.679Z,49.97
2023-01-11T19:29:42.648Z,49.53
2023-01-11T19:32:10.006Z,65.75
2023-01-11T19:34:39.685Z,89.07
2023-01-11T19:37:07.239Z,93.78
2023-01-11T19:39:36.455Z,84.47
2023-01-11T19:42:04.212Z,71.50
2023-01-11T19:44:32.896Z,67.30
2023-01-11T19:47:10.793Z,62.17
2023-01-11T19:49:38.896Z,64.57
2023-01-11T19:52:13.442Z,70.03
2023-01-11T19:54:43.443Z,65.30
2023-01-11T19:57:11.580Z,58.70
2023-01-11T19:59:38.958Z,63.15
2023-01-11T20:02:07.029Z,57.35
2023-01-11T20:04:34.792Z,58.42
2023-01-11T20:07:02.158Z,167.83
2023-01-11T20:09:29.667Z,112.47
2023-01-11T20:11:58.978Z,155.55
2023-01-11T20:14:27.012Z,143.05
2023-01-11T20:16:54.622Z,142.10
2023-01-11T20:19:22.248Z,117.40
2023-01-11T20:21:49.502Z,69.13
2023-01-11T20:24:16.970Z,54.47
2023-01-11T20:26:46.591Z,54.30
2023-01-11T20:29:15.475Z,42.42
2023-01-11T20:31:42.905Z,38.23
2023-01-11T20:34:11.841Z,38.78
2023-01-11T20:36:39.511Z,41.03
2023-01-11T20:39:07.333Z,64.00
2023-01-11T20:41:47.449Z,46.80
2023-01-11T20:44:20.646Z,51.47
2023-01-11T20:46:48.644Z,44.83
2023-01-11T20:49:17.086Z,46.25
2023-01-11T20:51:45.230Z,47.83
2023-01-11T20:54:13.302Z,50.08
2023-01-11T20:56:41.766Z,62.83
2023-01-11T21:01:38.745Z,106.57
2023-01-11T21:04:08.342Z,144.63
2023-01-11T21:06:37.706Z,91.88
2023-01-11T21:09:07.108Z,97.63
2023-01-11T21:11:35.371Z,93.50
2023-01-11T21:14:04.286Z,94.43
2023-01-11T21:16:31.927Z,154.77
2023-01-11T21:19:02.677Z,236.60
2023-01-11T21:21:32.103Z,238.23
2023-01-11T21:24:00.975Z,234.93
2023-01-11T21:26:29.098Z,219.35
2023-01-11T21:29:00.986Z,200.35
2023-01-11T21:31:31.316Z,181.95
2023-01-11T21:34:00.905Z,55.13
2023-01-11T21:36:30.560Z,29.45
2023-01-11T21:38:58.982Z,25.42
2023-01-11T21:41:46.721Z,21.63
2023-01-11T21:44:14.882Z,24.30
2023-01-11T21:46:42.902Z,20.13
2023-01-11T21:49:12.830Z,22.90
2023-01-11T21:51:40.954Z,22.35
2023-01-11T21:54:10.084Z,22.45
2023-01-11T21:56:37.626Z,22.73
2023-01-11T21:59:05.146Z,22.67
2023-01-11T22:01:32.499Z,26.80
2023-01-11T22:03:59.851Z,29.60
2023-01-11T22:06:28.472Z,24.15
2023-01-11T22:08:55.812Z,28.63
2023-01-11T22:11:23.181Z,30.87
2023-01-11T22:13:50.381Z,27.38
2023-01-11T22:16:18.481Z,23.95
2023-01-11T22:18:46.128Z,26.20
2023-01-11T22:21:14.932Z,27.25
2023-01-11T22:23:44.412Z,24.33
2023-01-11T22:26:13.727Z,18.95
2023-01-11T22:29:00.166Z,21.92
2023-01-11T22:31:29.457Z,21.48
2023-01-11T22:33:57.574Z,21.88
2023-01-11T22:36:26.077Z,23.27
2023-01-11T22:38:55.587Z,21.63
2023-01-11T22:41:24.123Z,19.42
2023-01-11T22:43:51.978Z,20.85
2023-01-11T22:46:21.200Z,22.75
2023-01-11T22:48:48.967Z,20.63
2023-01-11T22:51:17.539Z,21.42
2023-01-11T22:53:46.361Z,22.92
2023-01-11T22:56:20.281Z,23.20
2023-01-11T22:58:48.502Z,23.80
2023-01-11T23:01:18.580Z,27.57
2023-01-11T23:03:45.995Z,24.40
2023-01-11T23:06:16.319Z,26.70
2023-01-11T23:08:43.972Z,28.40
2023-01-11T23:11:15.776Z,26.88
2023-01-11T23:13:54.989Z,34.07
2023-01-11T23:16:22.881Z,69.50
2023-01-11T23:18:50.771Z,64.28
2023-01-11T23:21:18.206Z,51.00
2023-01-11T23:23:46.118Z,48.53
2023-01-11T23:26:17.887Z,45.50
2023-01-11T23:28:47.133Z,52.90
2023-01-11T23:31:17.174Z,53.88
2023-01-11T23:33:45.226Z,53.17
2023-01-11T23:36:13.365Z,51.38
2023-01-11T23:38:40.921Z,56.97
2023-01-11T23:41:27.939Z,61.35
2023-01-11T23:43:57.121Z,59.08
2023-01-11T23:46:43.448Z,54.30
2023-01-11T23:49:12.167Z,38.47
2023-01-11T23:51:39.433Z,52.63
2023-01-11T23:54:07.565Z,42.58
2023-01-11T23:56:35.871Z,38.55
2023-01-11T23:59:05.245Z,40.28
